sensor_id;sensor_type;location;lat;lon;timestamp;P1;durP1;ratioP1;P2;durP2;ratioP2
22697;SDS011;11516;51.612;7.510;2022-12-07T00:01:27;1.25;;;1.15;;
22697;SDS011;11516;51.612;7.510;2022-12-07T00:03:54;1.98;;;1.88;;
22697;SDS011;11516;51.612;7.510;2022-12-07T00:06:28;3.10;;;1.77;;
22697;SDS011;11516;51.612;7.510;2022-12-07T00:08:54;2.30;;;1.45;;
22697;SDS011;11516;51.612;7.510;2022-12-07T00:11:20;2.07;;;1.77;;
22697;SDS011;11516;51.612;7.510;2022-12-07T00:13:50;2.35;;;1.50;;
22697;SDS011;11516;51.612;7.510;2022-12-07T00:16:18;1.42;;;1.27;;
22697;SDS011;11516;51.612;7.510;2022-12-07T00:18:45;1.38;;;1.30;;
22697;SDS011;11516;51.612;7.510;2022-12-07T00:21:11;1.13;;;1.10;;
22697;SDS011;11516;51.612;7.510;2022-12-07T00:23:39;5.95;;;1.75;;
22697;SDS011;11516;51.612;7.510;2022-12-07T00:26:13;1.35;;;1.25;;
22697;SDS011;11516;51.612;7.510;2022-12-07T00:28:46;1.23;;;1.07;;
22697;SDS011;11516;51.612;7.510;2022-12-07T00:31:13;1.98;;;1.30;;
22697;SDS011;11516;51.612;7.510;2022-12-07T00:33:40;1.20;;;1.08;;
22697;SDS011;11516;51.612;7.510;2022-12-07T00:36:07;0.80;;;0.80;;
22697;SDS011;11516;51.612;7.510;2022-12-07T00:38:35;1.55;;;1.35;;
22697;SDS011;11516;51.612;7.510;2022-12-07T00:41:03;1.02;;;0.95;;
22697;SDS011;11516;51.612;7.510;2022-12-07T00:43:30;2.97;;;1.45;;
22697;SDS011;11516;51.612;7.510;2022-12-07T00:45:55;3.90;;;1.35;;
22697;SDS011;11516;51.612;7.510;2022-12-07T00:48:21;2.00;;;1.70;;
22697;SDS011;11516;51.612;7.510;2022-12-07T00:50:47;2.95;;;2.60;;
22697;SDS011;11516;51.612;7.510;2022-12-07T00:53:13;1.63;;;1.52;;
22697;SDS011;11516;51.612;7.510;2022-12-07T00:55:39;1.57;;;1.47;;
22697;SDS011;11516;51.612;7.510;2022-12-07T00:58:04;4.80;;;1.35;;
22697;SDS011;11516;51.612;7.510;2022-12-07T01:00:30;1.10;;;1.10;;
22697;SDS011;11516;51.612;7.510;2022-12-07T01:02:56;2.13;;;1.83;;
22697;SDS011;11516;51.612;7.510;2022-12-07T01:05:21;0.90;;;0.90;;
22697;SDS011;11516;51.612;7.510;2022-12-07T01:07:47;1.20;;;1.20;;
22697;SDS011;11516;51.612;7.510;2022-12-07T01:10:13;0.90;;;0.90;;
22697;SDS011;11516;51.612;7.510;2022-12-07T01:12:39;2.00;;;1.80;;
22697;SDS011;11516;51.612;7.510;2022-12-07T01:15:05;1.00;;;0.57;;
22697;SDS011;11516;51.612;7.510;2022-12-07T01:17:31;1.07;;;0.97;;
22697;SDS011;11516;51.612;7.510;2022-12-07T01:19:57;1.73;;;1.63;;
22697;SDS011;11516;51.612;7.510;2022-12-07T01:22:22;1.38;;;1.35;;
22697;SDS011;11516;51.612;7.510;2022-12-07T01:24:48;1.93;;;1.83;;
22697;SDS011;11516;51.612;7.510;2022-12-07T01:27:13;2.80;;;1.50;;
22697;SDS011;11516;51.612;7.510;2022-12-07T01:29:39;2.08;;;1.40;;
22697;SDS011;11516;51.612;7.510;2022-12-07T01:32:05;4.67;;;2.47;;
22697;SDS011;11516;51.612;7.510;2022-12-07T01:34:30;2.97;;;2.20;;
22697;SDS011;11516;51.612;7.510;2022-12-07T01:36:56;1.65;;;1.55;;
22697;SDS011;11516;51.612;7.510;2022-12-07T01:39:22;2.97;;;1.87;;
22697;SDS011;11516;51.612;7.510;2022-12-07T01:41:48;2.42;;;1.23;;
22697;SDS011;11516;51.612;7.510;2022-12-07T01:44:18;1.37;;;1.27;;
22697;SDS011;11516;51.612;7.510;2022-12-07T01:46:52;1.15;;;1.08;;
22697;SDS011;11516;51.612;7.510;2022-12-07T01:51:59;2.83;;;1.38;;
22697;SDS011;11516;51.612;7.510;2022-12-07T01:54:32;1.05;;;1.05;;
22697;SDS011;11516;51.612;7.510;2022-12-07T01:56:59;1.60;;;1.50;;
22697;SDS011;11516;51.612;7.510;2022-12-07T01:59:26;2.33;;;1.75;;
22697;SDS011;11516;51.612;7.510;2022-12-07T02:01:52;1.67;;;1.58;;
22697;SDS011;11516;51.612;7.510;2022-12-07T02:04:19;3.27;;;1.60;;
22697;SDS011;11516;51.612;7.510;2022-12-07T02:06:47;2.38;;;2.10;;
22697;SDS011;11516;51.612;7.510;2022-12-07T02:09:13;1.40;;;1.30;;
22697;SDS011;11516;51.612;7.510;2022-12-07T02:11:39;0.70;;;0.70;;
22697;SDS011;11516;51.612;7.510;2022-12-07T02:14:05;2.60;;;1.75;;
22697;SDS011;11516;51.612;7.510;2022-12-07T02:16:37;1.50;;;1.40;;
22697;SDS011;11516;51.612;7.510;2022-12-07T02:19:23;1.85;;;1.75;;
22697;SDS011;11516;51.612;7.510;2022-12-07T02:22:01;1.13;;;1.02;;
22697;SDS011;11516;51.612;7.510;2022-12-07T02:24:55;2.45;;;1.67;;
22697;SDS011;11516;51.612;7.510;2022-12-07T02:27:34;1.33;;;1.27;;
22697;SDS011;11516;51.612;7.510;2022-12-07T02:30:09;3.40;;;2.05;;
22697;SDS011;11516;51.612;7.510;2022-12-07T02:35:20;1.25;;;1.15;;
22697;SDS011;11516;51.612;7.510;2022-12-07T02:37:58;2.30;;;1.80;;
22697;SDS011;11516;51.612;7.510;2022-12-07T02:40:41;3.88;;;2.47;;
22697;SDS011;11516;51.612;7.510;2022-12-07T02:43:09;2.28;;;1.63;;
22697;SDS011;11516;51.612;7.510;2022-12-07T02:45:59;4.00;;;2.40;;
22697;SDS011;11516;51.612;7.510;2022-12-07T02:48:28;2.63;;;2.20;;
22697;SDS011;11516;51.612;7.510;2022-12-07T02:50:58;1.48;;;1.30;;
22697;SDS011;11516;51.612;7.510;2022-12-07T02:53:33;1.80;;;1.70;;
22697;SDS011;11516;51.612;7.510;2022-12-07T02:56:03;1.83;;;1.60;;
22697;SDS011;11516;51.612;7.510;2022-12-07T03:01:36;1.35;;;1.25;;
22697;SDS011;11516;51.612;7.510;2022-12-07T03:07:06;1.90;;;1.80;;
22697;SDS011;11516;51.612;7.510;2022-12-07T03:12:27;4.10;;;1.83;;
22697;SDS011;11516;51.612;7.510;2022-12-07T03:15:06;1.13;;;0.82;;
22697;SDS011;11516;51.612;7.510;2022-12-07T03:17:39;1.48;;;1.38;;
22697;SDS011;11516;51.612;7.510;2022-12-07T03:20:07;2.55;;;1.58;;
22697;SDS011;11516;51.612;7.510;2022-12-07T03:22:36;3.60;;;2.17;;
22697;SDS011;11516;51.612;7.510;2022-12-07T03:25:08;5.10;;;2.63;;
22697;SDS011;11516;51.612;7.510;2022-12-07T03:27:38;1.92;;;1.73;;
22697;SDS011;11516;51.612;7.510;2022-12-07T03:30:16;4.50;;;2.63;;
22697;SDS011;11516;51.612;7.510;2022-12-07T03:38:04;1.85;;;1.67;;
22697;SDS011;11516;51.612;7.510;2022-12-07T03:40:48;1.30;;;1.20;;
22697;SDS011;11516;51.612;7.510;2022-12-07T03:43:19;1.00;;;0.98;;
22697;SDS011;11516;51.612;7.510;2022-12-07T03:45:51;3.60;;;2.80;;
22697;SDS011;11516;51.612;7.510;2022-12-07T03:48:35;1.20;;;1.10;;
22697;SDS011;11516;51.612;7.510;2022-12-07T03:53:58;0.63;;;0.63;;
22697;SDS011;11516;51.612;7.510;2022-12-07T03:56:30;1.85;;;1.52;;
22697;SDS011;11516;51.612;7.510;2022-12-07T03:58:57;4.10;;;2.15;;
22697;SDS011;11516;51.612;7.510;2022-12-07T04:01:23;1.27;;;1.20;;
22697;SDS011;11516;51.612;7.510;2022-12-07T04:03:49;1.70;;;1.25;;
22697;SDS011;11516;51.612;7.510;2022-12-07T04:06:15;2.20;;;1.90;;
22697;SDS011;11516;51.612;7.510;2022-12-07T04:08:40;2.30;;;2.13;;
22697;SDS011;11516;51.612;7.510;2022-12-07T04:11:06;5.07;;;2.27;;
22697;SDS011;11516;51.612;7.510;2022-12-07T04:13:31;1.58;;;1.48;;
22697;SDS011;11516;51.612;7.510;2022-12-07T04:16:17;6.03;;;1.73;;
22697;SDS011;11516;51.612;7.510;2022-12-07T04:18:42;1.93;;;1.77;;
22697;SDS011;11516;51.612;7.510;2022-12-07T04:21:08;1.65;;;1.55;;
22697;SDS011;11516;51.612;7.510;2022-12-07T04:23:33;2.35;;;2.17;;
22697;SDS011;11516;51.612;7.510;2022-12-07T04:25:59;2.50;;;2.07;;
22697;SDS011;11516;51.612;7.510;2022-12-07T04:28:24;1.50;;;1.40;;
22697;SDS011;11516;51.612;7.510;2022-12-07T04:30:50;2.58;;;1.75;;
22697;SDS011;11516;51.612;7.510;2022-12-07T04:33:16;1.93;;;1.17;;
22697;SDS011;11516;51.612;7.510;2022-12-07T04:35:42;1.17;;;1.13;;
22697;SDS011;11516;51.612;7.510;2022-12-07T04:38:08;2.75;;;1.45;;
22697;SDS011;11516;51.612;7.510;2022-12-07T04:40:33;2.55;;;2.15;;
22697;SDS011;11516;51.612;7.510;2022-12-07T04:42:59;2.05;;;1.65;;
22697;SDS011;11516;51.612;7.510;2022-12-07T04:45:25;1.70;;;1.57;;
22697;SDS011;11516;51.612;7.510;2022-12-07T04:47:50;2.13;;;0.60;;
22697;SDS011;11516;51.612;7.510;2022-12-07T04:50:16;1.48;;;1.38;;
22697;SDS011;11516;51.612;7.510;2022-12-07T04:52:42;2.60;;;1.30;;
22697;SDS011;11516;51.612;7.510;2022-12-07T04:55:07;1.80;;;1.45;;
22697;SDS011;11516;51.612;7.510;2022-12-07T04:57:33;2.35;;;2.20;;
22697;SDS011;11516;51.612;7.510;2022-12-07T04:59:59;2.00;;;1.20;;
22697;SDS011;11516;51.612;7.510;2022-12-07T05:02:24;1.20;;;1.10;;
22697;SDS011;11516;51.612;7.510;2022-12-07T05:04:50;1.52;;;1.42;;
22697;SDS011;11516;51.612;7.510;2022-12-07T05:07:15;1.97;;;1.60;;
22697;SDS011;11516;51.612;7.510;2022-12-07T05:09:41;2.47;;;1.63;;
22697;SDS011;11516;51.612;7.510;2022-12-07T05:12:06;1.93;;;1.83;;
22697;SDS011;11516;51.612;7.510;2022-12-07T05:14:31;1.52;;;1.42;;
22697;SDS011;11516;51.612;7.510;2022-12-07T05:16:57;2.30;;;1.60;;
22697;SDS011;11516;51.612;7.510;2022-12-07T05:19:23;1.50;;;1.13;;
22697;SDS011;11516;51.612;7.510;2022-12-07T05:21:48;2.05;;;1.48;;
22697;SDS011;11516;51.612;7.510;2022-12-07T05:24:14;1.43;;;1.33;;
22697;SDS011;11516;51.612;7.510;2022-12-07T05:26:41;1.52;;;1.42;;
22697;SDS011;11516;51.612;7.510;2022-12-07T05:29:07;1.58;;;1.48;;
22697;SDS011;11516;51.612;7.510;2022-12-07T05:31:35;0.80;;;0.80;;
22697;SDS011;11516;51.612;7.510;2022-12-07T05:34:00;1.27;;;1.17;;
22697;SDS011;11516;51.612;7.510;2022-12-07T05:36:26;1.40;;;1.30;;
22697;SDS011;11516;51.612;7.510;2022-12-07T05:38:53;1.27;;;1.27;;
22697;SDS011;11516;51.612;7.510;2022-12-07T05:41:19;2.13;;;1.40;;
22697;SDS011;11516;51.612;7.510;2022-12-07T05:44:03;1.80;;;1.70;;
22697;SDS011;11516;51.612;7.510;2022-12-07T05:46:29;1.85;;;1.52;;
22697;SDS011;11516;51.612;7.510;2022-12-07T05:48:55;0.85;;;0.85;;
22697;SDS011;11516;51.612;7.510;2022-12-07T05:51:21;9.53;;;1.67;;
22697;SDS011;11516;51.612;7.510;2022-12-07T05:53:46;2.70;;;1.90;;
22697;SDS011;11516;51.612;7.510;2022-12-07T05:56:14;2.03;;;1.75;;
22697;SDS011;11516;51.612;7.510;2022-12-07T05:58:39;2.83;;;2.03;;
22697;SDS011;11516;51.612;7.510;2022-12-07T06:01:24;1.13;;;0.97;;
22697;SDS011;11516;51.612;7.510;2022-12-07T06:03:49;1.33;;;1.30;;
22697;SDS011;11516;51.612;7.510;2022-12-07T06:06:15;2.33;;;2.13;;
22697;SDS011;11516;51.612;7.510;2022-12-07T06:08:40;13.03;;;2.33;;
22697;SDS011;11516;51.612;7.510;2022-12-07T06:11:06;3.55;;;2.35;;
22697;SDS011;11516;51.612;7.510;2022-12-07T06:13:50;4.72;;;3.05;;
22697;SDS011;11516;51.612;7.510;2022-12-07T06:16:15;4.50;;;1.00;;
22697;SDS011;11516;51.612;7.510;2022-12-07T06:18:41;2.53;;;2.33;;
22697;SDS011;11516;51.612;7.510;2022-12-07T06:21:06;3.30;;;1.15;;
22697;SDS011;11516;51.612;7.510;2022-12-07T06:23:32;4.70;;;1.33;;
22697;SDS011;11516;51.612;7.510;2022-12-07T06:25:57;1.10;;;1.10;;
22697;SDS011;11516;51.612;7.510;2022-12-07T06:28:23;1.27;;;1.17;;
22697;SDS011;11516;51.612;7.510;2022-12-07T06:30:56;1.10;;;1.10;;
22697;SDS011;11516;51.612;7.510;2022-12-07T06:33:26;4.75;;;1.70;;
22697;SDS011;11516;51.612;7.510;2022-12-07T06:35:52;1.57;;;1.47;;
22697;SDS011;11516;51.612;7.510;2022-12-07T06:38:17;1.73;;;1.40;;
22697;SDS011;11516;51.612;7.510;2022-12-07T06:40:43;2.10;;;1.90;;
22697;SDS011;11516;51.612;7.510;2022-12-07T06:43:09;2.33;;;2.03;;
22697;SDS011;11516;51.612;7.510;2022-12-07T06:45:34;4.13;;;2.20;;
22697;SDS011;11516;51.612;7.510;2022-12-07T06:48:00;2.10;;;1.70;;
22697;SDS011;11516;51.612;7.510;2022-12-07T06:50:25;1.17;;;1.17;;
22697;SDS011;11516;51.612;7.510;2022-12-07T06:52:51;5.82;;;2.65;;
22697;SDS011;11516;51.612;7.510;2022-12-07T06:55:17;1.53;;;1.43;;
22697;SDS011;11516;51.612;7.510;2022-12-07T06:57:43;3.33;;;1.90;;
22697;SDS011;11516;51.612;7.510;2022-12-07T07:00:08;3.40;;;1.93;;
22697;SDS011;11516;51.612;7.510;2022-12-07T07:02:34;1.42;;;1.27;;
22697;SDS011;11516;51.612;7.510;2022-12-07T07:05:00;1.20;;;1.20;;
22697;SDS011;11516;51.612;7.510;2022-12-07T07:07:25;2.30;;;1.73;;
22697;SDS011;11516;51.612;7.510;2022-12-07T07:09:51;1.10;;;1.10;;
22697;SDS011;11516;51.612;7.510;2022-12-07T07:12:16;2.33;;;1.43;;
22697;SDS011;11516;51.612;7.510;2022-12-07T07:14:42;2.70;;;1.45;;
22697;SDS011;11516;51.612;7.510;2022-12-07T07:17:08;0.90;;;0.90;;
22697;SDS011;11516;51.612;7.510;2022-12-07T07:19:33;1.25;;;1.10;;
22697;SDS011;11516;51.612;7.510;2022-12-07T07:21:59;1.50;;;0.95;;
22697;SDS011;11516;51.612;7.510;2022-12-07T07:24:25;3.57;;;1.73;;
22697;SDS011;11516;51.612;7.510;2022-12-07T07:26:50;1.13;;;1.02;;
22697;SDS011;11516;51.612;7.510;2022-12-07T07:29:15;6.85;;;1.50;;
22697;SDS011;11516;51.612;7.510;2022-12-07T07:31:41;2.67;;;1.83;;
22697;SDS011;11516;51.612;7.510;2022-12-07T07:34:07;2.30;;;2.10;;
22697;SDS011;11516;51.612;7.510;2022-12-07T07:36:32;1.65;;;1.55;;
22697;SDS011;11516;51.612;7.510;2022-12-07T07:38:58;0.83;;;0.83;;
22697;SDS011;11516;51.612;7.510;2022-12-07T07:41:23;1.57;;;1.17;;
22697;SDS011;11516;51.612;7.510;2022-12-07T07:43:49;1.20;;;1.10;;
22697;SDS011;11516;51.612;7.510;2022-12-07T07:46:14;0.40;;;0.40;;
22697;SDS011;11516;51.612;7.510;2022-12-07T07:48:40;2.77;;;1.80;;
22697;SDS011;11516;51.612;7.510;2022-12-07T07:51:08;2.27;;;1.90;;
22697;SDS011;11516;51.612;7.510;2022-12-07T07:53:34;2.90;;;1.13;;
22697;SDS011;11516;51.612;7.510;2022-12-07T07:55:59;3.60;;;2.30;;
22697;SDS011;11516;51.612;7.510;2022-12-07T07:58:25;1.07;;;1.07;;
22697;SDS011;11516;51.612;7.510;2022-12-07T08:00:50;1.60;;;1.30;;
22697;SDS011;11516;51.612;7.510;2022-12-07T08:03:16;1.47;;;1.37;;
22697;SDS011;11516;51.612;7.510;2022-12-07T08:05:42;1.80;;;1.70;;
22697;SDS011;11516;51.612;7.510;2022-12-07T08:08:07;2.30;;;1.23;;
22697;SDS011;11516;51.612;7.510;2022-12-07T08:10:33;1.23;;;1.23;;
22697;SDS011;11516;51.612;7.510;2022-12-07T08:13:00;3.10;;;1.58;;
22697;SDS011;11516;51.612;7.510;2022-12-07T08:15:42;4.03;;;1.77;;
22697;SDS011;11516;51.612;7.510;2022-12-07T08:18:09;5.60;;;2.67;;
22697;SDS011;11516;51.612;7.510;2022-12-07T08:20:35;4.75;;;2.95;;
22697;SDS011;11516;51.612;7.510;2022-12-07T08:23:02;1.88;;;1.77;;
22697;SDS011;11516;51.612;7.510;2022-12-07T08:25:28;1.77;;;1.67;;
22697;SDS011;11516;51.612;7.510;2022-12-07T08:27:54;2.40;;;1.88;;
22697;SDS011;11516;51.612;7.510;2022-12-07T08:30:20;1.65;;;1.55;;
22697;SDS011;11516;51.612;7.510;2022-12-07T08:32:46;0.55;;;0.55;;
22697;SDS011;11516;51.612;7.510;2022-12-07T08:35:13;2.20;;;1.30;;
22697;SDS011;11516;51.612;7.510;2022-12-07T08:37:39;2.20;;;1.08;;
22697;SDS011;11516;51.612;7.510;2022-12-07T08:40:05;3.50;;;1.07;;
22697;SDS011;11516;51.612;7.510;2022-12-07T08:42:32;1.58;;;1.48;;
22697;SDS011;11516;51.612;7.510;2022-12-07T08:45:05;1.60;;;1.40;;
22697;SDS011;11516;51.612;7.510;2022-12-07T08:47:33;1.63;;;1.52;;
22697;SDS011;11516;51.612;7.510;2022-12-07T08:50:00;1.67;;;1.60;;
22697;SDS011;11516;51.612;7.510;2022-12-07T08:52:29;1.42;;;1.10;;
22697;SDS011;11516;51.612;7.510;2022-12-07T08:54:55;3.00;;;1.73;;
22697;SDS011;11516;51.612;7.510;2022-12-07T08:57:21;1.60;;;1.25;;
22697;SDS011;11516;51.612;7.510;2022-12-07T08:59:47;7.77;;;2.73;;
22697;SDS011;11516;51.612;7.510;2022-12-07T09:02:12;9.35;;;1.33;;
22697;SDS011;11516;51.612;7.510;2022-12-07T09:04:38;3.55;;;1.38;;
22697;SDS011;11516;51.612;7.510;2022-12-07T09:07:03;1.73;;;1.63;;
22697;SDS011;11516;51.612;7.510;2022-12-07T09:09:29;0.97;;;0.97;;
22697;SDS011;11516;51.612;7.510;2022-12-07T09:11:54;1.05;;;1.02;;
22697;SDS011;11516;51.612;7.510;2022-12-07T09:14:21;1.13;;;1.13;;
22697;SDS011;11516;51.612;7.510;2022-12-07T09:16:46;0.90;;;0.90;;
22697;SDS011;11516;51.612;7.510;2022-12-07T09:19:12;2.07;;;1.37;;
22697;SDS011;11516;51.612;7.510;2022-12-07T09:21:38;0.65;;;0.65;;
22697;SDS011;11516;51.612;7.510;2022-12-07T09:24:03;1.50;;;1.00;;
22697;SDS011;11516;51.612;7.510;2022-12-07T09:26:29;1.05;;;0.98;;
22697;SDS011;11516;51.612;7.510;2022-12-07T09:28:54;1.00;;;0.87;;
22697;SDS011;11516;51.612;7.510;2022-12-07T09:31:20;1.40;;;1.17;;
22697;SDS011;11516;51.612;7.510;2022-12-07T09:33:45;5.60;;;2.70;;
22697;SDS011;11516;51.612;7.510;2022-12-07T09:36:11;0.98;;;0.98;;
22697;SDS011;11516;51.612;7.510;2022-12-07T09:38:36;1.60;;;1.45;;
22697;SDS011;11516;51.612;7.510;2022-12-07T09:41:06;2.23;;;2.03;;
22697;SDS011;11516;51.612;7.510;2022-12-07T09:43:33;1.48;;;1.38;;
22697;SDS011;11516;51.612;7.510;2022-12-07T09:46:00;3.50;;;1.33;;
22697;SDS011;11516;51.612;7.510;2022-12-07T09:48:30;1.63;;;1.13;;
22697;SDS011;11516;51.612;7.510;2022-12-07T09:50:58;1.25;;;1.25;;
22697;SDS011;11516;51.612;7.510;2022-12-07T09:53:26;1.45;;;1.02;;
22697;SDS011;11516;51.612;7.510;2022-12-07T09:55:55;0.60;;;0.60;;
22697;SDS011;11516;51.612;7.510;2022-12-07T09:58:22;1.20;;;0.70;;
22697;SDS011;11516;51.612;7.510;2022-12-07T10:00:52;0.80;;;0.80;;
22697;SDS011;11516;51.612;7.510;2022-12-07T10:03:21;2.08;;;1.23;;
22697;SDS011;11516;51.612;7.510;2022-12-07T10:05:47;1.27;;;1.27;;
22697;SDS011;11516;51.612;7.510;2022-12-07T10:08:15;0.45;;;0.45;;
22697;SDS011;11516;51.612;7.510;2022-12-07T10:10:42;0.70;;;0.70;;
22697;SDS011;11516;51.612;7.510;2022-12-07T10:13:12;0.70;;;0.70;;
22697;SDS011;11516;51.612;7.510;2022-12-07T10:15:53;1.20;;;0.38;;
22697;SDS011;11516;51.612;7.510;2022-12-07T10:18:34;5.40;;;2.50;;
22697;SDS011;11516;51.612;7.510;2022-12-07T10:23:43;0.63;;;0.63;;
22697;SDS011;11516;51.612;7.510;2022-12-07T10:26:26;1.30;;;0.50;;
22697;SDS011;11516;51.612;7.510;2022-12-07T10:32:05;1.15;;;0.30;;
22697;SDS011;11516;51.612;7.510;2022-12-07T10:34:48;0.60;;;0.60;;
22697;SDS011;11516;51.612;7.510;2022-12-07T10:39:47;0.30;;;0.30;;
22697;SDS011;11516;51.612;7.510;2022-12-07T10:45:13;0.30;;;0.30;;
22697;SDS011;11516;51.612;7.510;2022-12-07T10:47:44;1.90;;;0.38;;
22697;SDS011;11516;51.612;7.510;2022-12-07T11:06:49;1.70;;;1.10;;
22697;SDS011;11516;51.612;7.510;2022-12-07T11:12:08;0.60;;;0.60;;
22697;SDS011;11516;51.612;7.510;2022-12-07T11:14:44;0.60;;;0.60;;
22697;SDS011;11516;51.612;7.510;2022-12-07T11:20:13;1.00;;;0.93;;
22697;SDS011;11516;51.612;7.510;2022-12-07T11:22:58;1.67;;;1.00;;
22697;SDS011;11516;51.612;7.510;2022-12-07T11:28:11;0.05;;;0.05;;
22697;SDS011;11516;51.612;7.510;2022-12-07T11:39:06;0.20;;;0.20;;
22697;SDS011;11516;51.612;7.510;2022-12-07T11:41:46;2.30;;;1.42;;
22697;SDS011;11516;51.612;7.510;2022-12-07T11:47:09;13.73;;;5.95;;
22697;SDS011;11516;51.612;7.510;2022-12-07T11:50:01;11.50;;;5.40;;
22697;SDS011;11516;51.612;7.510;2022-12-07T11:52:43;8.48;;;4.57;;
22697;SDS011;11516;51.612;7.510;2022-12-07T11:58:05;7.90;;;4.40;;
22697;SDS011;11516;51.612;7.510;2022-12-07T12:00:43;10.50;;;4.47;;
22697;SDS011;11516;51.612;7.510;2022-12-07T12:03:11;11.38;;;5.25;;
22697;SDS011;11516;51.612;7.510;2022-12-07T12:05:40;8.65;;;4.00;;
22697;SDS011;11516;51.612;7.510;2022-12-07T12:10:54;12.85;;;4.60;;
22697;SDS011;11516;51.612;7.510;2022-12-07T12:13:54;8.40;;;3.40;;
22697;SDS011;11516;51.612;7.510;2022-12-07T12:21:55;14.25;;;4.85;;
22697;SDS011;11516;51.612;7.510;2022-12-07T12:24:28;7.68;;;3.83;;
22697;SDS011;11516;51.612;7.510;2022-12-07T12:27:15;7.90;;;3.90;;
22697;SDS011;11516;51.612;7.510;2022-12-07T12:29:54;10.25;;;4.10;;
22697;SDS011;11516;51.612;7.510;2022-12-07T12:32:22;12.75;;;5.80;;
22697;SDS011;11516;51.612;7.510;2022-12-07T12:34:59;13.63;;;5.85;;
22697;SDS011;11516;51.612;7.510;2022-12-07T12:37:45;11.05;;;4.93;;
22697;SDS011;11516;51.612;7.510;2022-12-07T12:48:00;11.52;;;4.13;;
22697;SDS011;11516;51.612;7.510;2022-12-07T12:50:33;6.40;;;3.10;;
22697;SDS011;11516;51.612;7.510;2022-12-07T12:53:03;8.85;;;3.92;;
22697;SDS011;11516;51.612;7.510;2022-12-07T13:00:43;8.07;;;3.40;;
22697;SDS011;11516;51.612;7.510;2022-12-07T13:03:21;9.32;;;3.90;;
22697;SDS011;11516;51.612;7.510;2022-12-07T13:06:16;9.10;;;3.55;;
22697;SDS011;11516;51.612;7.510;2022-12-07T13:08:49;8.07;;;3.88;;
22697;SDS011;11516;51.612;7.510;2022-12-07T13:17:11;10.90;;;4.30;;
22697;SDS011;11516;51.612;7.510;2022-12-07T13:19:56;9.65;;;4.10;;
22697;SDS011;11516;51.612;7.510;2022-12-07T13:25:11;11.18;;;4.25;;
22697;SDS011;11516;51.612;7.510;2022-12-07T13:27:47;6.72;;;3.95;;
22697;SDS011;11516;51.612;7.510;2022-12-07T13:30:21;8.93;;;3.70;;
22697;SDS011;11516;51.612;7.510;2022-12-07T13:32:57;8.45;;;3.50;;
22697;SDS011;11516;51.612;7.510;2022-12-07T13:35:34;8.57;;;4.07;;
22697;SDS011;11516;51.612;7.510;2022-12-07T13:38:04;7.47;;;3.27;;
22697;SDS011;11516;51.612;7.510;2022-12-07T13:40:39;12.15;;;3.67;;
22697;SDS011;11516;51.612;7.510;2022-12-07T13:43:19;9.00;;;3.25;;
22697;SDS011;11516;51.612;7.510;2022-12-07T13:45:44;9.50;;;3.65;;
22697;SDS011;11516;51.612;7.510;2022-12-07T13:48:24;9.68;;;3.38;;
22697;SDS011;11516;51.612;7.510;2022-12-07T13:50:57;6.88;;;2.95;;
22697;SDS011;11516;51.612;7.510;2022-12-07T13:53:24;9.23;;;3.50;;
22697;SDS011;11516;51.612;7.510;2022-12-07T13:55:53;7.43;;;3.20;;
22697;SDS011;11516;51.612;7.510;2022-12-07T13:58:19;10.80;;;3.53;;
22697;SDS011;11516;51.612;7.510;2022-12-07T14:00:44;10.73;;;3.83;;
22697;SDS011;11516;51.612;7.510;2022-12-07T14:05:42;8.05;;;3.22;;
22697;SDS011;11516;51.612;7.510;2022-12-07T14:18:56;8.30;;;3.20;;
22697;SDS011;11516;51.612;7.510;2022-12-07T14:21:24;7.13;;;2.60;;
22697;SDS011;11516;51.612;7.510;2022-12-07T14:26:48;5.65;;;2.50;;
22697;SDS011;11516;51.612;7.510;2022-12-07T14:31:49;11.23;;;4.63;;
22697;SDS011;11516;51.612;7.510;2022-12-07T14:34:15;10.70;;;3.90;;
22697;SDS011;11516;51.612;7.510;2022-12-07T14:36:40;9.00;;;3.23;;
22697;SDS011;11516;51.612;7.510;2022-12-07T14:39:06;7.07;;;3.17;;
22697;SDS011;11516;51.612;7.510;2022-12-07T14:41:31;7.97;;;3.95;;
22697;SDS011;11516;51.612;7.510;2022-12-07T14:44:15;8.23;;;3.45;;
22697;SDS011;11516;51.612;7.510;2022-12-07T14:46:41;6.72;;;2.78;;
22697;SDS011;11516;51.612;7.510;2022-12-07T14:49:06;8.63;;;2.70;;
22697;SDS011;11516;51.612;7.510;2022-12-07T14:51:32;6.78;;;2.90;;
22697;SDS011;11516;51.612;7.510;2022-12-07T14:54:00;7.60;;;3.70;;
22697;SDS011;11516;51.612;7.510;2022-12-07T14:56:29;7.32;;;3.10;;
22697;SDS011;11516;51.612;7.510;2022-12-07T14:58:55;8.27;;;3.35;;
22697;SDS011;11516;51.612;7.510;2022-12-07T15:01:20;9.03;;;3.33;;
22697;SDS011;11516;51.612;7.510;2022-12-07T15:03:45;8.80;;;4.00;;
22697;SDS011;11516;51.612;7.510;2022-12-07T15:06:13;8.68;;;3.80;;
22697;SDS011;11516;51.612;7.510;2022-12-07T15:08:40;10.45;;;4.20;;
22697;SDS011;11516;51.612;7.510;2022-12-07T15:11:05;8.90;;;4.03;;
22697;SDS011;11516;51.612;7.510;2022-12-07T15:13:31;10.57;;;4.53;;
22697;SDS011;11516;51.612;7.510;2022-12-07T15:16:16;9.48;;;4.43;;
22697;SDS011;11516;51.612;7.510;2022-12-07T15:18:44;10.80;;;4.85;;
22697;SDS011;11516;51.612;7.510;2022-12-07T15:21:13;9.38;;;4.63;;
22697;SDS011;11516;51.612;7.510;2022-12-07T15:23:39;10.80;;;4.72;;
22697;SDS011;11516;51.612;7.510;2022-12-07T15:26:05;12.65;;;5.18;;
22697;SDS011;11516;51.612;7.510;2022-12-07T15:28:31;10.27;;;4.30;;
22697;SDS011;11516;51.612;7.510;2022-12-07T15:30:56;10.53;;;4.70;;
22697;SDS011;11516;51.612;7.510;2022-12-07T15:33:22;11.30;;;4.80;;
22697;SDS011;11516;51.612;7.510;2022-12-07T15:35:47;10.57;;;4.80;;
22697;SDS011;11516;51.612;7.510;2022-12-07T15:38:13;10.15;;;4.90;;
22697;SDS011;11516;51.612;7.510;2022-12-07T15:40:38;11.20;;;5.17;;
22697;SDS011;11516;51.612;7.510;2022-12-07T15:43:04;11.02;;;4.90;;
22697;SDS011;11516;51.612;7.510;2022-12-07T15:45:50;11.37;;;5.50;;
22697;SDS011;11516;51.612;7.510;2022-12-07T15:48:16;9.05;;;5.10;;
22697;SDS011;11516;51.612;7.510;2022-12-07T15:50:41;9.17;;;5.20;;
22697;SDS011;11516;51.612;7.510;2022-12-07T15:53:07;9.55;;;5.05;;
22697;SDS011;11516;51.612;7.510;2022-12-07T15:55:32;10.47;;;5.00;;
22697;SDS011;11516;51.612;7.510;2022-12-07T15:57:58;9.60;;;5.10;;
22697;SDS011;11516;51.612;7.510;2022-12-07T16:00:24;8.73;;;5.05;;
22697;SDS011;11516;51.612;7.510;2022-12-07T16:02:50;8.48;;;4.90;;
22697;SDS011;11516;51.612;7.510;2022-12-07T16:05:15;8.40;;;5.32;;
22697;SDS011;11516;51.612;7.510;2022-12-07T16:07:41;11.87;;;5.63;;
22697;SDS011;11516;51.612;7.510;2022-12-07T16:10:07;9.43;;;5.10;;
22697;SDS011;11516;51.612;7.510;2022-12-07T16:12:32;10.60;;;5.78;;
22697;SDS011;11516;51.612;7.510;2022-12-07T16:14:58;10.80;;;5.03;;
22697;SDS011;11516;51.612;7.510;2022-12-07T16:17:23;9.10;;;5.20;;
22697;SDS011;11516;51.612;7.510;2022-12-07T16:19:49;10.23;;;5.38;;
22697;SDS011;11516;51.612;7.510;2022-12-07T16:22:14;8.63;;;5.53;;
22697;SDS011;11516;51.612;7.510;2022-12-07T16:24:40;10.23;;;5.47;;
22697;SDS011;11516;51.612;7.510;2022-12-07T16:27:06;11.45;;;6.25;;
22697;SDS011;11516;51.612;7.510;2022-12-07T16:29:31;10.50;;;6.20;;
22697;SDS011;11516;51.612;7.510;2022-12-07T16:31:57;10.10;;;5.60;;
22697;SDS011;11516;51.612;7.510;2022-12-07T16:34:22;12.30;;;5.82;;
22697;SDS011;11516;51.612;7.510;2022-12-07T16:36:48;13.43;;;5.93;;
22697;SDS011;11516;51.612;7.510;2022-12-07T16:39:13;11.57;;;5.43;;
22697;SDS011;11516;51.612;7.510;2022-12-07T16:41:39;11.65;;;5.72;;
22697;SDS011;11516;51.612;7.510;2022-12-07T16:44:06;12.43;;;6.10;;
22697;SDS011;11516;51.612;7.510;2022-12-07T16:46:33;12.02;;;5.15;;
22697;SDS011;11516;51.612;7.510;2022-12-07T16:49:00;16.35;;;9.25;;
22697;SDS011;11516;51.612;7.510;2022-12-07T16:51:26;18.30;;;9.60;;
22697;SDS011;11516;51.612;7.510;2022-12-07T16:53:52;11.55;;;6.72;;
22697;SDS011;11516;51.612;7.510;2022-12-07T16:56:18;11.02;;;6.75;;